sensor_id;sensor_type;location;lat;lon;timestamp;temperature;humidity
8792;DHT22;4432;50.890;4.744;2023-04-07T00:00:53;9.10;99.90
8792;DHT22;4432;50.890;4.744;2023-04-07T00:03:19;9.10;99.90
8792;DHT22;4432;50.890;4.744;2023-04-07T00:05:45;9.10;99.90
8792;DHT22;4432;50.890;4.744;2023-04-07T00:08:10;9.10;99.90
8792;DHT22;4432;50.890;4.744;2023-04-07T00:10:36;9.10;99.90
8792;DHT22;4432;50.890;4.744;2023-04-07T00:13:02;9.10;99.90
8792;DHT22;4432;50.890;4.744;2023-04-07T00:15:28;9.00;99.90
8792;DHT22;4432;50.890;4.744;2023-04-07T00:17:53;9.10;99.90
8792;DHT22;4432;50.890;4.744;2023-04-07T00:20:19;9.00;99.90
8792;DHT22;4432;50.890;4.744;2023-04-07T00:22:45;9.00;99.90
8792;DHT22;4432;50.890;4.744;2023-04-07T00:25:11;9.00;99.90
8792;DHT22;4432;50.890;4.744;2023-04-07T00:27:36;9.00;99.90
8792;DHT22;4432;50.890;4.744;2023-04-07T00:30:03;9.00;99.90
8792;DHT22;4432;50.890;4.744;2023-04-07T00:32:28;9.00;99.90
8792;DHT22;4432;50.890;4.744;2023-04-07T00:34:54;9.00;99.90
8792;DHT22;4432;50.890;4.744;2023-04-07T00:37:20;8.90;99.90
8792;DHT22;4432;50.890;4.744;2023-04-07T00:39:46;8.90;99.90
8792;DHT22;4432;50.890;4.744;2023-04-07T00:42:12;8.90;99.90
8792;DHT22;4432;50.890;4.744;2023-04-07T00:44:38;8.80;99.90
8792;DHT22;4432;50.890;4.744;2023-04-07T00:47:03;8.90;99.90
8792;DHT22;4432;50.890;4.744;2023-04-07T00:49:30;8.90;99.90
8792;DHT22;4432;50.890;4.744;2023-04-07T00:51:57;8.90;99.90
8792;DHT22;4432;50.890;4.744;2023-04-07T00:54:23;8.90;99.90
8792;DHT22;4432;50.890;4.744;2023-04-07T00:56:49;8.90;99.90
8792;DHT22;4432;50.890;4.744;2023-04-07T00:59:15;8.90;99.90
8792;DHT22;4432;50.890;4.744;2023-04-07T01:04:58;8.80;99.90
8792;DHT22;4432;50.890;4.744;2023-04-07T01:07:33;8.80;99.90
8792;DHT22;4432;50.890;4.744;2023-04-07T01:10:05;8.70;99.90
8792;DHT22;4432;50.890;4.744;2023-04-07T01:12:48;8.70;99.90
8792;DHT22;4432;50.890;4.744;2023-04-07T01:15:20;8.70;99.90
8792;DHT22;4432;50.890;4.744;2023-04-07T01:17:52;8.70;99.90
8792;DHT22;4432;50.890;4.744;2023-04-07T01:20:22;8.60;99.90
8792;DHT22;4432;50.890;4.744;2023-04-07T01:22:56;8.70;99.90
8792;DHT22;4432;50.890;4.744;2023-04-07T01:28:26;8.70;99.90
8792;DHT22;4432;50.890;4.744;2023-04-07T01:30:57;8.70;99.90
8792;DHT22;4432;50.890;4.744;2023-04-07T01:33:25;8.70;99.90
8792;DHT22;4432;50.890;4.744;2023-04-07T01:35:54;8.70;99.90
8792;DHT22;4432;50.890;4.744;2023-04-07T01:38:20;8.70;99.90
8792;DHT22;4432;50.890;4.744;2023-04-07T01:40:47;8.70;99.90
8792;DHT22;4432;50.890;4.744;2023-04-07T01:43:14;8.70;99.90
8792;DHT22;4432;50.890;4.744;2023-04-07T01:45:41;8.70;99.90
8792;DHT22;4432;50.890;4.744;2023-04-07T01:48:07;8.70;99.90
8792;DHT22;4432;50.890;4.744;2023-04-07T01:50:33;8.70;99.90
8792;DHT22;4432;50.890;4.744;2023-04-07T01:53:00;8.70;99.90
8792;DHT22;4432;50.890;4.744;2023-04-07T01:55:28;8.70;99.90
8792;DHT22;4432;50.890;4.744;2023-04-07T01:57:54;8.60;99.90
8792;DHT22;4432;50.890;4.744;2023-04-07T02:00:19;8.60;99.90
8792;DHT22;4432;50.890;4.744;2023-04-07T02:02:48;8.50;99.90
8792;DHT22;4432;50.890;4.744;2023-04-07T02:05:19;8.50;99.90
8792;DHT22;4432;50.890;4.744;2023-04-07T02:07:51;8.40;99.90
8792;DHT22;4432;50.890;4.744;2023-04-07T02:10:20;8.30;99.90
8792;DHT22;4432;50.890;4.744;2023-04-07T02:12:47;8.30;99.90
8792;DHT22;4432;50.890;4.744;2023-04-07T02:15:14;8.20;99.90
8792;DHT22;4432;50.890;4.744;2023-04-07T02:17:42;8.00;99.90
8792;DHT22;4432;50.890;4.744;2023-04-07T02:20:10;8.00;99.90
8792;DHT22;4432;50.890;4.744;2023-04-07T02:22:41;7.90;99.90
8792;DHT22;4432;50.890;4.744;2023-04-07T02:25:24;7.90;99.90
8792;DHT22;4432;50.890;4.744;2023-04-07T02:27:50;7.80;99.90
8792;DHT22;4432;50.890;4.744;2023-04-07T02:30:16;7.80;99.90
8792;DHT22;4432;50.890;4.744;2023-04-07T02:32:42;7.80;99.90
8792;DHT22;4432;50.890;4.744;2023-04-07T02:35:08;7.80;99.90
8792;DHT22;4432;50.890;4.744;2023-04-07T02:37:33;7.80;99.90
8792;DHT22;4432;50.890;4.744;2023-04-07T02:39:59;7.70;99.90
8792;DHT22;4432;50.890;4.744;2023-04-07T02:42:25;7.60;99.90
8792;DHT22;4432;50.890;4.744;2023-04-07T02:44:51;7.60;99.90
8792;DHT22;4432;50.890;4.744;2023-04-07T02:47:17;7.60;99.90
8792;DHT22;4432;50.890;4.744;2023-04-07T02:49:42;7.50;99.90
8792;DHT22;4432;50.890;4.744;2023-04-07T02:52:08;7.50;99.90
8792;DHT22;4432;50.890;4.744;2023-04-07T02:54:35;7.40;99.90
8792;DHT22;4432;50.890;4.744;2023-04-07T02:57:01;7.30;99.90
8792;DHT22;4432;50.890;4.744;2023-04-07T02:59:26;7.30;99.90
8792;DHT22;4432;50.890;4.744;2023-04-07T03:01:52;7.30;99.90
8792;DHT22;4432;50.890;4.744;2023-04-07T03:04:18;7.20;99.90
8792;DHT22;4432;50.890;4.744;2023-04-07T03:06:44;7.20;99.90
8792;DHT22;4432;50.890;4.744;2023-04-07T03:09:10;7.20;99.90
8792;DHT22;4432;50.890;4.744;2023-04-07T03:11:36;7.20;99.90
8792;DHT22;4432;50.890;4.744;2023-04-07T03:14:02;7.20;99.90
8792;DHT22;4432;50.890;4.744;2023-04-07T03:16:27;7.20;99.90
8792;DHT22;4432;50.890;4.744;2023-04-07T03:18:53;7.20;99.90
8792;DHT22;4432;50.890;4.744;2023-04-07T03:21:19;7.10;99.90
8792;DHT22;4432;50.890;4.744;2023-04-07T03:23:44;7.10;99.90
8792;DHT22;4432;50.890;4.744;2023-04-07T03:26:11;7.10;99.90
8792;DHT22;4432;50.890;4.744;2023-04-07T03:28:36;7.20;99.90
8792;DHT22;4432;50.890;4.744;2023-04-07T03:31:02;7.20;99.90
8792;DHT22;4432;50.890;4.744;2023-04-07T03:33:28;7.20;99.90
8792;DHT22;4432;50.890;4.744;2023-04-07T03:35:53;7.20;99.90
8792;DHT22;4432;50.890;4.744;2023-04-07T03:38:20;7.20;99.90
8792;DHT22;4432;50.890;4.744;2023-04-07T03:40:46;7.20;99.90
8792;DHT22;4432;50.890;4.744;2023-04-07T03:43:11;7.20;99.90
8792;DHT22;4432;50.890;4.744;2023-04-07T03:45:40;7.20;99.90
8792;DHT22;4432;50.890;4.744;2023-04-07T03:48:06;7.20;99.90
8792;DHT22;4432;50.890;4.744;2023-04-07T03:50:40;7.30;99.90
8792;DHT22;4432;50.890;4.744;2023-04-07T03:53:06;7.30;99.90
8792;DHT22;4432;50.890;4.744;2023-04-07T03:55:33;7.30;99.90
8792;DHT22;4432;50.890;4.744;2023-04-07T03:57:59;7.30;99.90
8792;DHT22;4432;50.890;4.744;2023-04-07T04:00:25;7.20;99.90
8792;DHT22;4432;50.890;4.744;2023-04-07T04:02:51;7.20;99.90
8792;DHT22;4432;50.890;4.744;2023-04-07T04:05:17;7.20;99.90
8792;DHT22;4432;50.890;4.744;2023-04-07T04:07:43;7.20;99.90
8792;DHT22;4432;50.890;4.744;2023-04-07T04:10:09;7.20;99.90
8792;DHT22;4432;50.890;4.744;2023-04-07T04:12:35;7.20;99.90
8792;DHT22;4432;50.890;4.744;2023-04-07T04:15:01;7.20;99.90
8792;DHT22;4432;50.890;4.744;2023-04-07T04:17:26;7.20;99.90
8792;DHT22;4432;50.890;4.744;2023-04-07T04:19:52;7.20;99.90
8792;DHT22;4432;50.890;4.744;2023-04-07T04:22:19;7.30;99.90
8792;DHT22;4432;50.890;4.744;2023-04-07T04:24:45;7.30;99.90
8792;DHT22;4432;50.890;4.744;2023-04-07T04:27:11;7.30;99.90
8792;DHT22;4432;50.890;4.744;2023-04-07T04:29:37;7.30;99.90
8792;DHT22;4432;50.890;4.744;2023-04-07T04:32:02;7.40;99.90
8792;DHT22;4432;50.890;4.744;2023-04-07T04:34:28;7.40;99.90
8792;DHT22;4432;50.890;4.744;2023-04-07T04:36:54;7.40;99.90
8792;DHT22;4432;50.890;4.744;2023-04-07T04:39:20;7.30;99.90
8792;DHT22;4432;50.890;4.744;2023-04-07T04:41:45;7.30;99.90
8792;DHT22;4432;50.890;4.744;2023-04-07T04:44:11;7.30;99.90
8792;DHT22;4432;50.890;4.744;2023-04-07T04:46:37;7.20;99.90
8792;DHT22;4432;50.890;4.744;2023-04-07T04:49:03;7.20;99.90
8792;DHT22;4432;50.890;4.744;2023-04-07T04:51:28;7.20;99.90
8792;DHT22;4432;50.890;4.744;2023-04-07T04:53:54;7.10;99.90
8792;DHT22;4432;50.890;4.744;2023-04-07T04:56:20;7.10;99.90
8792;DHT22;4432;50.890;4.744;2023-04-07T04:58:46;7.20;99.90
8792;DHT22;4432;50.890;4.744;2023-04-07T05:01:12;7.10;99.90
8792;DHT22;4432;50.890;4.744;2023-04-07T05:03:38;7.10;99.90
8792;DHT22;4432;50.890;4.744;2023-04-07T05:06:04;7.00;99.90
8792;DHT22;4432;50.890;4.744;2023-04-07T05:08:30;6.90;99.90
8792;DHT22;4432;50.890;4.744;2023-04-07T05:10:56;6.90;99.90
8792;DHT22;4432;50.890;4.744;2023-04-07T05:13:22;6.80;99.90
8792;DHT22;4432;50.890;4.744;2023-04-07T05:15:50;6.80;99.90
8792;DHT22;4432;50.890;4.744;2023-04-07T05:18:16;6.80;99.90
8792;DHT22;4432;50.890;4.744;2023-04-07T05:20:43;6.70;99.90
8792;DHT22;4432;50.890;4.744;2023-04-07T05:23:09;6.70;99.90
8792;DHT22;4432;50.890;4.744;2023-04-07T05:25:35;6.70;99.90
8792;DHT22;4432;50.890;4.744;2023-04-07T05:28:01;6.60;99.90
8792;DHT22;4432;50.890;4.744;2023-04-07T05:30:27;6.50;99.90
8792;DHT22;4432;50.890;4.744;2023-04-07T05:32:53;6.50;99.90
8792;DHT22;4432;50.890;4.744;2023-04-07T05:35:18;6.40;99.90
8792;DHT22;4432;50.890;4.744;2023-04-07T05:37:45;6.40;99.90
8792;DHT22;4432;50.890;4.744;2023-04-07T05:40:11;6.30;99.90
8792;DHT22;4432;50.890;4.744;2023-04-07T05:42:36;6.30;99.90
8792;DHT22;4432;50.890;4.744;2023-04-07T05:45:03;6.30;99.90
8792;DHT22;4432;50.890;4.744;2023-04-07T05:47:29;6.30;99.90
8792;DHT22;4432;50.890;4.744;2023-04-07T05:49:55;6.40;99.90
8792;DHT22;4432;50.890;4.744;2023-04-07T05:52:21;6.60;99.90
8792;DHT22;4432;50.890;4.744;2023-04-07T05:54:46;6.70;99.90
8792;DHT22;4432;50.890;4.744;2023-04-07T05:57:12;6.80;99.90
8792;DHT22;4432;50.890;4.744;2023-04-07T05:59:38;6.90;99.90
8792;DHT22;4432;50.890;4.744;2023-04-07T06:02:04;7.00;99.90
8792;DHT22;4432;50.890;4.744;2023-04-07T06:04:30;6.90;99.90
8792;DHT22;4432;50.890;4.744;2023-04-07T06:06:56;7.00;99.90
8792;DHT22;4432;50.890;4.744;2023-04-07T06:09:21;7.00;99.90
8792;DHT22;4432;50.890;4.744;2023-04-07T06:11:47;7.10;99.90
8792;DHT22;4432;50.890;4.744;2023-04-07T06:14:13;7.20;99.90
8792;DHT22;4432;50.890;4.744;2023-04-07T06:16:39;7.30;99.90
8792;DHT22;4432;50.890;4.744;2023-04-07T06:19:05;7.60;99.90
8792;DHT22;4432;50.890;4.744;2023-04-07T06:21:32;7.90;99.90
8792;DHT22;4432;50.890;4.744;2023-04-07T06:23:58;8.20;99.90
8792;DHT22;4432;50.890;4.744;2023-04-07T06:26:24;8.50;99.90
8792;DHT22;4432;50.890;4.744;2023-04-07T06:28:51;8.60;99.90
8792;DHT22;4432;50.890;4.744;2023-04-07T06:31:16;8.70;99.90
8792;DHT22;4432;50.890;4.744;2023-04-07T06:33:43;8.60;99.90
8792;DHT22;4432;50.890;4.744;2023-04-07T06:36:10;8.70;99.90
8792;DHT22;4432;50.890;4.744;2023-04-07T06:38:36;8.80;99.90
8792;DHT22;4432;50.890;4.744;2023-04-07T06:41:02;8.80;99.90
8792;DHT22;4432;50.890;4.744;2023-04-07T06:43:29;8.80;99.90
8792;DHT22;4432;50.890;4.744;2023-04-07T06:45:55;8.80;99.90
8792;DHT22;4432;50.890;4.744;2023-04-07T06:48:21;9.00;99.90
8792;DHT22;4432;50.890;4.744;2023-04-07T06:50:50;9.20;99.90
8792;DHT22;4432;50.890;4.744;2023-04-07T06:53:16;9.20;99.90
8792;DHT22;4432;50.890;4.744;2023-04-07T06:55:42;9.20;99.90
8792;DHT22;4432;50.890;4.744;2023-04-07T06:58:08;9.40;99.90
8792;DHT22;4432;50.890;4.744;2023-04-07T07:00:34;9.50;99.90
8792;DHT22;4432;50.890;4.744;2023-04-07T07:03:02;9.60;99.90
8792;DHT22;4432;50.890;4.744;2023-04-07T07:05:29;9.70;99.90
8792;DHT22;4432;50.890;4.744;2023-04-07T07:07:55;9.90;99.90
8792;DHT22;4432;50.890;4.744;2023-04-07T07:10:21;9.90;99.90
8792;DHT22;4432;50.890;4.744;2023-04-07T07:12:48;10.10;99.90
8792;DHT22;4432;50.890;4.744;2023-04-07T07:15:13;10.40;99.90
8792;DHT22;4432;50.890;4.744;2023-04-07T07:17:39;10.30;99.90
8792;DHT22;4432;50.890;4.744;2023-04-07T07:20:06;10.20;99.90
8792;DHT22;4432;50.890;4.744;2023-04-07T07:22:32;10.20;99.90
8792;DHT22;4432;50.890;4.744;2023-04-07T07:24:57;10.20;99.90
8792;DHT22;4432;50.890;4.744;2023-04-07T07:27:23;10.20;99.90
8792;DHT22;4432;50.890;4.744;2023-04-07T07:29:49;10.30;99.90
8792;DHT22;4432;50.890;4.744;2023-04-07T07:32:15;10.20;99.90
8792;DHT22;4432;50.890;4.744;2023-04-07T07:34:41;10.20;99.90
8792;DHT22;4432;50.890;4.744;2023-04-07T07:37:06;10.30;99.90
8792;DHT22;4432;50.890;4.744;2023-04-07T07:39:32;10.30;99.90
8792;DHT22;4432;50.890;4.744;2023-04-07T07:41:58;10.40;99.90
8792;DHT22;4432;50.890;4.744;2023-04-07T07:44:23;10.70;99.90
8792;DHT22;4432;50.890;4.744;2023-04-07T07:46:49;10.80;99.90
8792;DHT22;4432;50.890;4.744;2023-04-07T07:49:15;10.90;99.90
8792;DHT22;4432;50.890;4.744;2023-04-07T07:51:41;10.90;99.90
8792;DHT22;4432;50.890;4.744;2023-04-07T07:54:07;10.80;99.90
8792;DHT22;4432;50.890;4.744;2023-04-07T07:56:34;10.80;99.90
8792;DHT22;4432;50.890;4.744;2023-04-07T07:59:00;10.90;99.90
8792;DHT22;4432;50.890;4.744;2023-04-07T08:01:26;11.00;99.90
8792;DHT22;4432;50.890;4.744;2023-04-07T08:03:52;11.10;99.90
8792;DHT22;4432;50.890;4.744;2023-04-07T08:06:17;11.10;99.90
8792;DHT22;4432;50.890;4.744;2023-04-07T08:08:43;10.80;99.90
8792;DHT22;4432;50.890;4.744;2023-04-07T08:11:09;10.90;99.90
8792;DHT22;4432;50.890;4.744;2023-04-07T08:13:35;10.90;99.90
8792;DHT22;4432;50.890;4.744;2023-04-07T08:16:01;10.90;99.90
8792;DHT22;4432;50.890;4.744;2023-04-07T08:18:26;11.00;99.90
8792;DHT22;4432;50.890;4.744;2023-04-07T08:20:52;11.00;99.90
8792;DHT22;4432;50.890;4.744;2023-04-07T08:23:18;11.00;99.90
8792;DHT22;4432;50.890;4.744;2023-04-07T08:25:44;11.00;99.90
8792;DHT22;4432;50.890;4.744;2023-04-07T08:28:09;11.10;99.90
8792;DHT22;4432;50.890;4.744;2023-04-07T08:30:35;11.10;99.90
8792;DHT22;4432;50.890;4.744;2023-04-07T08:33:04;11.00;99.90
8792;DHT22;4432;50.890;4.744;2023-04-07T08:35:30;10.90;99.90
8792;DHT22;4432;50.890;4.744;2023-04-07T08:37:56;10.70;99.90
8792;DHT22;4432;50.890;4.744;2023-04-07T08:40:22;10.90;99.90
8792;DHT22;4432;50.890;4.744;2023-04-07T08:42:48;11.20;99.90
8792;DHT22;4432;50.890;4.744;2023-04-07T08:45:15;11.40;99.90
8792;DHT22;4432;50.890;4.744;2023-04-07T08:47:42;11.50;99.90
8792;DHT22;4432;50.890;4.744;2023-04-07T08:50:11;11.60;99.90
8792;DHT22;4432;50.890;4.744;2023-04-07T08:52:44;11.70;99.90
8792;DHT22;4432;50.890;4.744;2023-04-07T08:55:11;11.40;99.90
8792;DHT22;4432;50.890;4.744;2023-04-07T08:57:37;11.40;99.90
8792;DHT22;4432;50.890;4.744;2023-04-07T09:00:04;11.20;99.90
8792;DHT22;4432;50.890;4.744;2023-04-07T09:02:32;11.00;99.90
8792;DHT22;4432;50.890;4.744;2023-04-07T09:04:58;11.00;99.90
8792;DHT22;4432;50.890;4.744;2023-04-07T09:07:25;11.00;99.90
8792;DHT22;4432;50.890;4.744;2023-04-07T09:09:51;10.90;99.90
8792;DHT22;4432;50.890;4.744;2023-04-07T09:12:17;10.90;99.90
8792;DHT22;4432;50.890;4.744;2023-04-07T09:14:43;11.00;99.90
8792;DHT22;4432;50.890;4.744;2023-04-07T09:17:08;11.20;99.90
8792;DHT22;4432;50.890;4.744;2023-04-07T09:19:34;11.20;99.90
8792;DHT22;4432;50.890;4.744;2023-04-07T09:22:00;11.30;99.90
8792;DHT22;4432;50.890;4.744;2023-04-07T09:24:27;11.40;99.90
8792;DHT22;4432;50.890;4.744;2023-04-07T09:27:09;11.50;99.90
8792;DHT22;4432;50.890;4.744;2023-04-07T09:29:39;11.40;99.90
8792;DHT22;4432;50.890;4.744;2023-04-07T09:32:06;11.50;99.90
8792;DHT22;4432;50.890;4.744;2023-04-07T09:34:35;11.70;99.90
8792;DHT22;4432;50.890;4.744;2023-04-07T09:37:01;11.80;99.90
8792;DHT22;4432;50.890;4.744;2023-04-07T09:39:28;11.80;99.90
8792;DHT22;4432;50.890;4.744;2023-04-07T09:41:54;11.90;99.90
8792;DHT22;4432;50.890;4.744;2023-04-07T09:44:21;11.80;99.90
8792;DHT22;4432;50.890;4.744;2023-04-07T09:46:48;11.90;99.90
8792;DHT22;4432;50.890;4.744;2023-04-07T09:49:14;12.10;99.90
8792;DHT22;4432;50.890;4.744;2023-04-07T09:51:54;12.20;99.90
8792;DHT22;4432;50.890;4.744;2023-04-07T09:54:35;12.80;99.90
8792;DHT22;4432;50.890;4.744;2023-04-07T09:57:05;13.00;99.90
8792;DHT22;4432;50.890;4.744;2023-04-07T09:59:32;13.10;99.90
8792;DHT22;4432;50.890;4.744;2023-04-07T10:01:59;13.00;99.90
8792;DHT22;4432;50.890;4.744;2023-04-07T10:04:26;13.00;99.90
8792;DHT22;4432;50.890;4.744;2023-04-07T10:06:53;13.00;99.90
8792;DHT22;4432;50.890;4.744;2023-04-07T10:09:26;13.00;99.90
8792;DHT22;4432;50.890;4.744;2023-04-07T10:11:53;13.10;99.90
8792;DHT22;4432;50.890;4.744;2023-04-07T10:14:22;13.50;99.90
8792;DHT22;4432;50.890;4.744;2023-04-07T10:16:50;13.70;99.90
8792;DHT22;4432;50.890;4.744;2023-04-07T10:19:18;13.80;99.90
8792;DHT22;4432;50.890;4.744;2023-04-07T10:21:44;13.70;99.90
8792;DHT22;4432;50.890;4.744;2023-04-07T10:27:03;12.80;99.90
8792;DHT22;4432;50.890;4.744;2023-04-07T10:29:35;12.50;99.90
8792;DHT22;4432;50.890;4.744;2023-04-07T10:32:01;12.20;99.90
8792;DHT22;4432;50.890;4.744;2023-04-07T10:37:13;12.00;99.90
8792;DHT22;4432;50.890;4.744;2023-04-07T10:39:42;12.00;99.90
8792;DHT22;4432;50.890;4.744;2023-04-07T10:45:07;12.10;99.90
8792;DHT22;4432;50.890;4.744;2023-04-07T10:47:34;12.10;99.90
8792;DHT22;4432;50.890;4.744;2023-04-07T10:50:21;12.20;99.90
8792;DHT22;4432;50.890;4.744;2023-04-07T10:53:07;12.30;99.90
8792;DHT22;4432;50.890;4.744;2023-04-07T10:55:38;12.30;99.90
8792;DHT22;4432;50.890;4.744;2023-04-07T10:58:23;12.50;99.90
8792;DHT22;4432;50.890;4.744;2023-04-07T11:03:34;12.70;99.90
8792;DHT22;4432;50.890;4.744;2023-04-07T11:06:09;12.40;99.90
8792;DHT22;4432;50.890;4.744;2023-04-07T11:08:40;12.20;99.90
8792;DHT22;4432;50.890;4.744;2023-04-07T11:11:08;12.00;99.90
8792;DHT22;4432;50.890;4.744;2023-04-07T11:13:48;11.90;99.90
8792;DHT22;4432;50.890;4.744;2023-04-07T11:16:16;11.80;99.90
8792;DHT22;4432;50.890;4.744;2023-04-07T11:18:43;11.80;99.90
8792;DHT22;4432;50.890;4.744;2023-04-07T11:21:09;11.80;99.90
8792;DHT22;4432;50.890;4.744;2023-04-07T11:23:42;12.00;99.90
8792;DHT22;4432;50.890;4.744;2023-04-07T11:26:10;12.10;99.90
8792;DHT22;4432;50.890;4.744;2023-04-07T11:28:45;12.20;99.90
8792;DHT22;4432;50.890;4.744;2023-04-07T11:31:11;12.50;99.90
8792;DHT22;4432;50.890;4.744;2023-04-07T11:33:38;12.70;99.90
8792;DHT22;4432;50.890;4.744;2023-04-07T11:36:05;12.80;99.90
8792;DHT22;4432;50.890;4.744;2023-04-07T11:38:36;13.00;99.90
8792;DHT22;4432;50.890;4.744;2023-04-07T11:41:12;13.10;99.90
8792;DHT22;4432;50.890;4.744;2023-04-07T11:43:38;13.10;99.90
8792;DHT22;4432;50.890;4.744;2023-04-07T11:48:34;13.00;99.90
8792;DHT22;4432;50.890;4.744;2023-04-07T11:51:01;12.90;99.90
8792;DHT22;4432;50.890;4.744;2023-04-07T11:53:32;12.70;99.90
8792;DHT22;4432;50.890;4.744;2023-04-07T11:56:12;12.70;99.90
8792;DHT22;4432;50.890;4.744;2023-04-07T11:58:48;12.70;99.90
8792;DHT22;4432;50.890;4.744;2023-04-07T12:01:14;12.70;99.90
8792;DHT22;4432;50.890;4.744;2023-04-07T12:04:01;12.60;99.90
8792;DHT22;4432;50.890;4.744;2023-04-07T12:06:32;12.50;99.90
8792;DHT22;4432;50.890;4.744;2023-04-07T12:09:05;12.50;99.90
8792;DHT22;4432;50.890;4.744;2023-04-07T12:11:32;12.50;99.90
8792;DHT22;4432;50.890;4.744;2023-04-07T12:13:58;12.60;99.90
8792;DHT22;4432;50.890;4.744;2023-04-07T12:16:24;12.50;99.90
8792;DHT22;4432;50.890;4.744;2023-04-07T12:18:50;12.50;99.90
8792;DHT22;4432;50.890;4.744;2023-04-07T12:21:17;12.40;99.90
8792;DHT22;4432;50.890;4.744;2023-04-07T12:23:44;12.10;99.90
8792;DHT22;4432;50.890;4.744;2023-04-07T12:26:10;11.80;99.90
8792;DHT22;4432;50.890;4.744;2023-04-07T12:28:37;11.50;99.90
8792;DHT22;4432;50.890;4.744;2023-04-07T12:31:03;11.40;99.90
8792;DHT22;4432;50.890;4.744;2023-04-07T12:33:29;11.30;99.90
8792;DHT22;4432;50.890;4.744;2023-04-07T12:35:56;11.20;99.90
8792;DHT22;4432;50.890;4.744;2023-04-07T12:38:23;11.20;99.90
8792;DHT22;4432;50.890;4.744;2023-04-07T12:40:49;11.30;99.90
8792;DHT22;4432;50.890;4.744;2023-04-07T12:43:14;11.40;99.90
8792;DHT22;4432;50.890;4.744;2023-04-07T12:45:40;11.40;99.90
8792;DHT22;4432;50.890;4.744;2023-04-07T12:48:06;11.50;99.90
8792;DHT22;4432;50.890;4.744;2023-04-07T12:50:32;11.60;99.90
8792;DHT22;4432;50.890;4.744;2023-04-07T12:52:59;11.70;99.90
8792;DHT22;4432;50.890;4.744;2023-04-07T12:55:28;11.80;99.90
8792;DHT22;4432;50.890;4.744;2023-04-07T12:57:54;11.80;99.90
8792;DHT22;4432;50.890;4.744;2023-04-07T13:00:20;11.90;99.90
8792;DHT22;4432;50.890;4.744;2023-04-07T13:02:46;12.00;99.90
8792;DHT22;4432;50.890;4.744;2023-04-07T13:05:12;12.20;99.90
8792;DHT22;4432;50.890;4.744;2023-04-07T13:07:38;12.40;99.90
8792;DHT22;4432;50.890;4.744;2023-04-07T13:10:04;12.70;99.90
8792;DHT22;4432;50.890;4.744;2023-04-07T13:12:32;12.90;99.90
8792;DHT22;4432;50.890;4.744;2023-04-07T13:14:58;13.20;99.90
8792;DHT22;4432;50.890;4.744;2023-04-07T13:17:24;13.30;99.90
8792;DHT22;4432;50.890;4.744;2023-04-07T13:19:50;13.50;99.90
8792;DHT22;4432;50.890;4.744;2023-04-07T13:22:15;13.70;99.90
8792;DHT22;4432;50.890;4.744;2023-04-07T13:24:42;13.90;99.90
8792;DHT22;4432;50.890;4.744;2023-04-07T13:27:08;14.10;99.90
8792;DHT22;4432;50.890;4.744;2023-04-07T13:29:33;14.20;99.90
8792;DHT22;4432;50.890;4.744;2023-04-07T13:32:09;14.40;99.90
8792;DHT22;4432;50.890;4.744;2023-04-07T13:34:38;14.40;99.90
8792;DHT22;4432;50.890;4.744;2023-04-07T13:37:04;14.30;99.90
8792;DHT22;4432;50.890;4.744;2023-04-07T13:39:31;14.10;99.90
8792;DHT22;4432;50.890;4.744;2023-04-07T13:41:58;14.00;99.90
8792;DHT22;4432;50.890;4.744;2023-04-07T13:44:25;13.80;99.90
8792;DHT22;4432;50.890;4.744;2023-04-07T13:46:52;13.30;99.90
8792;DHT22;4432;50.890;4.744;2023-04-07T13:49:18;12.80;99.90
8792;DHT22;4432;50.890;4.744;2023-04-07T13:51:44;12.50;99.90
8792;DHT22;4432;50.890;4.744;2023-04-07T13:54:10;12.40;99.90
8792;DHT22;4432;50.890;4.744;2023-04-07T13:56:35;12.10;99.90
8792;DHT22;4432;50.890;4.744;2023-04-07T13:59:06;12.10;99.90
8792;DHT22;4432;50.890;4.744;2023-04-07T14:01:33;12.00;99.90
8792;DHT22;4432;50.890;4.744;2023-04-07T14:04:03;11.90;99.90
8792;DHT22;4432;50.890;4.744;2023-04-07T14:06:29;11.90;99.90
8792;DHT22;4432;50.890;4.744;2023-04-07T14:08:57;12.00;99.90
8792;DHT22;4432;50.890;4.744;2023-04-07T14:11:23;12.00;99.90
8792;DHT22;4432;50.890;4.744;2023-04-07T14:13:49;12.20;99.90
8792;DHT22;4432;50.890;4.744;2023-04-07T14:16:16;12.30;99.90
8792;DHT22;4432;50.890;4.744;2023-04-07T14:18:42;12.40;99.90
8792;DHT22;4432;50.890;4.744;2023-04-07T14:21:08;12.50;99.90
8792;DHT22;4432;50.890;4.744;2023-04-07T14:23:35;12.50;99.90
8792;DHT22;4432;50.890;4.744;2023-04-07T14:26:01;12.50;99.90
8792;DHT22;4432;50.890;4.744;2023-04-07T14:28:27;12.50;99.90
8792;DHT22;4432;50.890;4.744;2023-04-07T14:30:54;12.60;99.90
8792;DHT22;4432;50.890;4.744;2023-04-07T14:33:20;12.70;99.90
8792;DHT22;4432;50.890;4.744;2023-04-07T14:35:46;12.70;99.90
8792;DHT22;4432;50.890;4.744;2023-04-07T14:38:12;12.80;99.90
8792;DHT22;4432;50.890;4.744;2023-04-07T14:40:39;12.90;99.90
8792;DHT22;4432;50.890;4.744;2023-04-07T14:43:05;12.90;99.90
8792;DHT22;4432;50.890;4.744;2023-04-07T14:45:32;12.80;99.90
8792;DHT22;4432;50.890;4.744;2023-04-07T14:47:59;12.60;99.90
8792;DHT22;4432;50.890;4.744;2023-04-07T14:50:25;12.50;99.90
8792;DHT22;4432;50.890;4.744;2023-04-07T14:52:52;12.30;99.90
8792;DHT22;4432;50.890;4.744;2023-04-07T14:55:18;12.30;99.90
8792;DHT22;4432;50.890;4.744;2023-04-07T14:57:44;12.30;99.90
8792;DHT22;4432;50.890;4.744;2023-04-07T15:00:10;12.50;99.90
8792;DHT22;4432;50.890;4.744;2023-04-07T15:02:36;12.60;99.90
8792;DHT22;4432;50.890;4.744;2023-04-07T15:05:02;12.80;99.90
8792;DHT22;4432;50.890;4.744;2023-04-07T15:07:28;12.90;99.90
8792;DHT22;4432;50.890;4.744;2023-04-07T15:09:53;12.70;99.90
8792;DHT22;4432;50.890;4.744;2023-04-07T15:12:19;12.70;99.90
8792;DHT22;4432;50.890;4.744;2023-04-07T15:14:45;12.70;99.90
8792;DHT22;4432;50.890;4.744;2023-04-07T15:17:11;12.80;99.90
8792;DHT22;4432;50.890;4.744;2023-04-07T15:19:37;12.80;99.90
8792;DHT22;4432;50.890;4.744;2023-04-07T15:22:03;12.80;99.90
8792;DHT22;4432;50.890;4.744;2023-04-07T15:24:29;12.70;99.90
8792;DHT22;4432;50.890;4.744;2023-04-07T15:26:55;12.70;99.90
8792;DHT22;4432;50.890;4.744;2023-04-07T15:29:20;12.60;99.90
8792;DHT22;4432;50.890;4.744;2023-04-07T15:31:46;12.20;99.90
8792;DHT22;4432;50.890;4.744;2023-04-07T15:34:12;12.00;99.90
8792;DHT22;4432;50.890;4.744;2023-04-07T15:36:38;11.80;99.90
8792;DHT22;4432;50.890;4.744;2023-04-07T15:39:05;11.80;99.90
8792;DHT22;4432;50.890;4.744;2023-04-07T15:41:33;11.80;99.90
8792;DHT22;4432;50.890;4.744;2023-04-07T15:44:00;11.90;99.90
8792;DHT22;4432;50.890;4.744;2023-04-07T15:46:26;12.10;99.90
8792;DHT22;4432;50.890;4.744;2023-04-07T15:48:52;12.30;99.90
8792;DHT22;4432;50.890;4.744;2023-04-07T15:51:18;12.50;99.90
8792;DHT22;4432;50.890;4.744;2023-04-07T15:53:43;12.50;99.90
8792;DHT22;4432;50.890;4.744;2023-04-07T15:56:09;12.40;99.90
8792;DHT22;4432;50.890;4.744;2023-04-07T15:58:35;12.50;99.90
8792;DHT22;4432;50.890;4.744;2023-04-07T16:01:01;12.50;99.90
8792;DHT22;4432;50.890;4.744;2023-04-07T16:03:27;12.30;99.90
8792;DHT22;4432;50.890;4.744;2023-04-07T16:05:53;12.10;99.90
8792;DHT22;4432;50.890;4.744;2023-04-07T16:08:19;12.10;99.90
8792;DHT22;4432;50.890;4.744;2023-04-07T16:10:45;12.10;99.90
8792;DHT22;4432;50.890;4.744;2023-04-07T16:13:11;12.10;99.90
8792;DHT22;4432;50.890;4.744;2023-04-07T16:15:37;12.30;99.90
8792;DHT22;4432;50.890;4.744;2023-04-07T16:18:07;12.40;99.90
8792;DHT22;4432;50.890;4.744;2023-04-07T16:20:33;12.40;99.90
8792;DHT22;4432;50.890;4.744;2023-04-07T16:22:59;12.30;99.90
8792;DHT22;4432;50.890;4.744;2023-04-07T16:25:24;12.30;99.90
8792;DHT22;4432;50.890;4.744;2023-04-07T16:27:53;12.10;99.90